sensor_id;sensor_type;location;lat;lon;timestamp;P1;durP1;ratioP1;P2;durP2;ratioP2
52978;SDS011;63430;53.186;6.598;2023-03-03T00:01:53;43.40;;;15.80;;
52978;SDS011;63430;53.186;6.598;2023-03-03T00:03:58;59.08;;;15.90;;
52978;SDS011;63430;53.186;6.598;2023-03-03T00:06:01;61.60;;;15.30;;
52978;SDS011;63430;53.186;6.598;2023-03-03T00:08:04;98.07;;;17.80;;
52978;SDS011;63430;53.186;6.598;2023-03-03T00:10:07;102.72;;;18.63;;
52978;SDS011;63430;53.186;6.598;2023-03-03T00:12:17;118.97;;;17.52;;
52978;SDS011;63430;53.186;6.598;2023-03-03T00:14:24;91.93;;;13.77;;
52978;SDS011;63430;53.186;6.598;2023-03-03T00:16:30;45.47;;;14.98;;
52978;SDS011;63430;53.186;6.598;2023-03-03T00:18:40;72.40;;;16.05;;
52978;SDS011;63430;53.186;6.598;2023-03-03T00:20:49;27.58;;;13.02;;
52978;SDS011;63430;53.186;6.598;2023-03-03T00:22:57;67.30;;;15.70;;
52978;SDS011;63430;53.186;6.598;2023-03-03T00:25:20;57.50;;;12.52;;
52978;SDS011;63430;53.186;6.598;2023-03-03T00:27:30;53.60;;;13.27;;
52978;SDS011;63430;53.186;6.598;2023-03-03T00:29:49;29.45;;;12.70;;
52978;SDS011;63430;53.186;6.598;2023-03-03T00:31:53;89.10;;;17.13;;
52978;SDS011;63430;53.186;6.598;2023-03-03T00:34:02;65.32;;;13.82;;
52978;SDS011;63430;53.186;6.598;2023-03-03T00:36:26;34.47;;;13.57;;
52978;SDS011;63430;53.186;6.598;2023-03-03T00:38:34;57.33;;;12.15;;
52978;SDS011;63430;53.186;6.598;2023-03-03T00:40:38;47.70;;;13.13;;
52978;SDS011;63430;53.186;6.598;2023-03-03T00:42:42;44.05;;;13.43;;
52978;SDS011;63430;53.186;6.598;2023-03-03T00:44:51;35.65;;;11.77;;
52978;SDS011;63430;53.186;6.598;2023-03-03T00:46:57;42.40;;;11.60;;
52978;SDS011;63430;53.186;6.598;2023-03-03T00:49:23;17.52;;;11.20;;
52978;SDS011;63430;53.186;6.598;2023-03-03T00:51:31;23.70;;;11.60;;
52978;SDS011;63430;53.186;6.598;2023-03-03T00:53:56;24.35;;;13.23;;
52978;SDS011;63430;53.186;6.598;2023-03-03T00:56:00;44.65;;;12.65;;
52978;SDS011;63430;53.186;6.598;2023-03-03T00:58:02;31.63;;;11.82;;
52978;SDS011;63430;53.186;6.598;2023-03-03T01:00:10;38.25;;;12.77;;
52978;SDS011;63430;53.186;6.598;2023-03-03T01:02:14;24.95;;;12.50;;
52978;SDS011;63430;53.186;6.598;2023-03-03T01:04:17;16.70;;;13.18;;
52978;SDS011;63430;53.186;6.598;2023-03-03T01:06:19;42.47;;;15.15;;
52978;SDS011;63430;53.186;6.598;2023-03-03T01:08:25;30.67;;;12.27;;
52978;SDS011;63430;53.186;6.598;2023-03-03T01:10:27;38.10;;;15.02;;
52978;SDS011;63430;53.186;6.598;2023-03-03T01:12:33;50.92;;;13.38;;
52978;SDS011;63430;53.186;6.598;2023-03-03T01:14:36;40.50;;;13.18;;
52978;SDS011;63430;53.186;6.598;2023-03-03T01:16:39;43.17;;;11.85;;
52978;SDS011;63430;53.186;6.598;2023-03-03T01:18:42;47.67;;;13.77;;
52978;SDS011;63430;53.186;6.598;2023-03-03T01:20:44;53.03;;;14.77;;
52978;SDS011;63430;53.186;6.598;2023-03-03T01:22:47;42.97;;;16.58;;
52978;SDS011;63430;53.186;6.598;2023-03-03T01:24:57;26.00;;;13.35;;
52978;SDS011;63430;53.186;6.598;2023-03-03T01:27:00;35.20;;;13.63;;
52978;SDS011;63430;53.186;6.598;2023-03-03T01:29:03;29.77;;;12.32;;
52978;SDS011;63430;53.186;6.598;2023-03-03T01:31:08;48.35;;;15.30;;
52978;SDS011;63430;53.186;6.598;2023-03-03T01:33:22;59.65;;;12.77;;
52978;SDS011;63430;53.186;6.598;2023-03-03T01:35:24;39.10;;;14.55;;
52978;SDS011;63430;53.186;6.598;2023-03-03T01:37:27;49.45;;;14.73;;
52978;SDS011;63430;53.186;6.598;2023-03-03T01:39:30;113.45;;;15.23;;
52978;SDS011;63430;53.186;6.598;2023-03-03T01:41:35;45.78;;;14.38;;
52978;SDS011;63430;53.186;6.598;2023-03-03T01:43:42;28.48;;;13.65;;
52978;SDS011;63430;53.186;6.598;2023-03-03T01:48:20;78.53;;;16.88;;
52978;SDS011;63430;53.186;6.598;2023-03-03T01:50:37;67.50;;;12.70;;
52978;SDS011;63430;53.186;6.598;2023-03-03T01:52:46;37.38;;;12.75;;
52978;SDS011;63430;53.186;6.598;2023-03-03T01:54:50;41.40;;;13.30;;
52978;SDS011;63430;53.186;6.598;2023-03-03T01:57:00;63.40;;;15.70;;
52978;SDS011;63430;53.186;6.598;2023-03-03T01:59:10;27.15;;;13.48;;
52978;SDS011;63430;53.186;6.598;2023-03-03T02:01:16;45.50;;;14.13;;
52978;SDS011;63430;53.186;6.598;2023-03-03T02:03:23;45.95;;;14.65;;
52978;SDS011;63430;53.186;6.598;2023-03-03T02:05:26;40.60;;;14.13;;
52978;SDS011;63430;53.186;6.598;2023-03-03T02:07:29;46.03;;;14.63;;
52978;SDS011;63430;53.186;6.598;2023-03-03T02:09:34;90.03;;;16.38;;
52978;SDS011;63430;53.186;6.598;2023-03-03T02:11:44;143.30;;;17.95;;
52978;SDS011;63430;53.186;6.598;2023-03-03T02:13:52;128.50;;;19.40;;
52978;SDS011;63430;53.186;6.598;2023-03-03T02:15:56;34.63;;;12.07;;
52978;SDS011;63430;53.186;6.598;2023-03-03T02:18:01;36.53;;;14.13;;
52978;SDS011;63430;53.186;6.598;2023-03-03T02:20:09;37.83;;;14.55;;
52978;SDS011;63430;53.186;6.598;2023-03-03T02:22:16;55.90;;;13.90;;
52978;SDS011;63430;53.186;6.598;2023-03-03T02:24:24;73.20;;;14.05;;
52978;SDS011;63430;53.186;6.598;2023-03-03T02:26:34;37.22;;;14.60;;
52978;SDS011;63430;53.186;6.598;2023-03-03T02:28:42;44.53;;;12.15;;
52978;SDS011;63430;53.186;6.598;2023-03-03T02:30:46;66.88;;;13.02;;
52978;SDS011;63430;53.186;6.598;2023-03-03T02:32:51;81.40;;;13.23;;
52978;SDS011;63430;53.186;6.598;2023-03-03T02:34:53;23.85;;;12.23;;
52978;SDS011;63430;53.186;6.598;2023-03-03T02:36:59;46.75;;;13.00;;
52978;SDS011;63430;53.186;6.598;2023-03-03T02:39:02;48.85;;;11.13;;
52978;SDS011;63430;53.186;6.598;2023-03-03T02:41:09;28.40;;;12.88;;
52978;SDS011;63430;53.186;6.598;2023-03-03T02:43:20;59.92;;;12.35;;
52978;SDS011;63430;53.186;6.598;2023-03-03T02:45:26;46.55;;;13.23;;
52978;SDS011;63430;53.186;6.598;2023-03-03T02:47:28;87.60;;;13.00;;
52978;SDS011;63430;53.186;6.598;2023-03-03T02:49:37;78.00;;;11.68;;
52978;SDS011;63430;53.186;6.598;2023-03-03T02:51:40;38.28;;;11.60;;
52978;SDS011;63430;53.186;6.598;2023-03-03T02:53:43;50.10;;;11.27;;
52978;SDS011;63430;53.186;6.598;2023-03-03T02:55:49;14.40;;;11.13;;
52978;SDS011;63430;53.186;6.598;2023-03-03T02:57:51;28.17;;;12.00;;
52978;SDS011;63430;53.186;6.598;2023-03-03T02:59:56;19.73;;;11.30;;
52978;SDS011;63430;53.186;6.598;2023-03-03T03:02:00;14.77;;;11.73;;
52978;SDS011;63430;53.186;6.598;2023-03-03T03:04:06;38.50;;;13.20;;
52978;SDS011;63430;53.186;6.598;2023-03-03T03:06:11;54.83;;;13.20;;
52978;SDS011;63430;53.186;6.598;2023-03-03T03:08:15;26.08;;;11.70;;
52978;SDS011;63430;53.186;6.598;2023-03-03T03:10:17;31.42;;;11.80;;
52978;SDS011;63430;53.186;6.598;2023-03-03T03:12:21;50.03;;;11.60;;
52978;SDS011;63430;53.186;6.598;2023-03-03T03:14:27;33.03;;;11.25;;
52978;SDS011;63430;53.186;6.598;2023-03-03T03:16:43;49.17;;;11.35;;
52978;SDS011;63430;53.186;6.598;2023-03-03T03:18:50;20.77;;;10.48;;
52978;SDS011;63430;53.186;6.598;2023-03-03T03:20:53;37.17;;;10.55;;
52978;SDS011;63430;53.186;6.598;2023-03-03T03:22:56;65.50;;;10.55;;
52978;SDS011;63430;53.186;6.598;2023-03-03T03:25:01;48.97;;;12.90;;
52978;SDS011;63430;53.186;6.598;2023-03-03T03:27:05;46.90;;;12.13;;
52978;SDS011;63430;53.186;6.598;2023-03-03T03:29:08;57.90;;;10.80;;
52978;SDS011;63430;53.186;6.598;2023-03-03T03:31:12;13.98;;;10.30;;
52978;SDS011;63430;53.186;6.598;2023-03-03T03:33:18;63.83;;;12.48;;
52978;SDS011;63430;53.186;6.598;2023-03-03T03:35:20;63.05;;;13.13;;
52978;SDS011;63430;53.186;6.598;2023-03-03T03:37:23;15.05;;;10.13;;
52978;SDS011;63430;53.186;6.598;2023-03-03T03:39:29;31.35;;;12.00;;
52978;SDS011;63430;53.186;6.598;2023-03-03T03:41:33;73.65;;;11.32;;
52978;SDS011;63430;53.186;6.598;2023-03-03T03:43:35;45.20;;;12.88;;
52978;SDS011;63430;53.186;6.598;2023-03-03T03:45:38;31.70;;;10.10;;
52978;SDS011;63430;53.186;6.598;2023-03-03T03:47:42;42.58;;;10.70;;
52978;SDS011;63430;53.186;6.598;2023-03-03T03:49:51;78.55;;;13.60;;
52978;SDS011;63430;53.186;6.598;2023-03-03T03:51:54;74.40;;;12.95;;
52978;SDS011;63430;53.186;6.598;2023-03-03T03:54:00;49.97;;;13.00;;
52978;SDS011;63430;53.186;6.598;2023-03-03T03:56:03;39.35;;;11.35;;
52978;SDS011;63430;53.186;6.598;2023-03-03T03:58:08;15.73;;;11.07;;
52978;SDS011;63430;53.186;6.598;2023-03-03T04:00:16;43.58;;;11.80;;
52978;SDS011;63430;53.186;6.598;2023-03-03T04:02:26;26.98;;;10.30;;
52978;SDS011;63430;53.186;6.598;2023-03-03T04:04:32;19.45;;;10.20;;
52978;SDS011;63430;53.186;6.598;2023-03-03T04:06:37;14.70;;;10.50;;
52978;SDS011;63430;53.186;6.598;2023-03-03T04:08:40;25.13;;;10.30;;
52978;SDS011;63430;53.186;6.598;2023-03-03T04:10:44;14.70;;;8.75;;
52978;SDS011;63430;53.186;6.598;2023-03-03T04:12:47;11.45;;;10.43;;
52978;SDS011;63430;53.186;6.598;2023-03-03T04:16:59;9.40;;;8.65;;
52978;SDS011;63430;53.186;6.598;2023-03-03T04:19:02;15.85;;;9.20;;
52978;SDS011;63430;53.186;6.598;2023-03-03T04:21:09;10.23;;;9.23;;
52978;SDS011;63430;53.186;6.598;2023-03-03T04:23:15;24.05;;;10.25;;
52978;SDS011;63430;53.186;6.598;2023-03-03T04:25:18;32.17;;;10.25;;
52978;SDS011;63430;53.186;6.598;2023-03-03T04:27:22;30.45;;;9.88;;
52978;SDS011;63430;53.186;6.598;2023-03-03T04:29:25;57.17;;;11.35;;
52978;SDS011;63430;53.186;6.598;2023-03-03T04:31:29;20.92;;;11.20;;
52978;SDS011;63430;53.186;6.598;2023-03-03T04:33:32;10.68;;;9.85;;
52978;SDS011;63430;53.186;6.598;2023-03-03T04:35:36;11.82;;;10.75;;
52978;SDS011;63430;53.186;6.598;2023-03-03T04:37:38;30.48;;;9.98;;
52978;SDS011;63430;53.186;6.598;2023-03-03T04:39:44;11.55;;;9.57;;
52978;SDS011;63430;53.186;6.598;2023-03-03T04:41:46;12.45;;;10.43;;
52978;SDS011;63430;53.186;6.598;2023-03-03T04:43:49;18.70;;;9.88;;
52978;SDS011;63430;53.186;6.598;2023-03-03T04:45:51;10.18;;;9.48;;
52978;SDS011;63430;53.186;6.598;2023-03-03T04:47:55;10.25;;;9.55;;
52978;SDS011;63430;53.186;6.598;2023-03-03T04:49:58;13.82;;;9.07;;
52978;SDS011;63430;53.186;6.598;2023-03-03T04:52:04;31.80;;;8.93;;
52978;SDS011;63430;53.186;6.598;2023-03-03T04:54:06;16.50;;;8.57;;
52978;SDS011;63430;53.186;6.598;2023-03-03T04:56:12;9.35;;;8.65;;
52978;SDS011;63430;53.186;6.598;2023-03-03T04:58:14;9.43;;;8.73;;
52978;SDS011;63430;53.186;6.598;2023-03-03T05:00:17;9.05;;;8.35;;
52978;SDS011;63430;53.186;6.598;2023-03-03T05:02:22;9.10;;;8.40;;
52978;SDS011;63430;53.186;6.598;2023-03-03T05:04:25;9.02;;;8.32;;
52978;SDS011;63430;53.186;6.598;2023-03-03T05:06:27;10.43;;;9.55;;
52978;SDS011;63430;53.186;6.598;2023-03-03T05:08:30;9.00;;;8.30;;
52978;SDS011;63430;53.186;6.598;2023-03-03T05:10:32;9.90;;;9.20;;
52978;SDS011;63430;53.186;6.598;2023-03-03T05:12:38;11.00;;;10.30;;
52978;SDS011;63430;53.186;6.598;2023-03-03T05:14:41;10.13;;;9.23;;
52978;SDS011;63430;53.186;6.598;2023-03-03T05:16:46;9.63;;;8.93;;
52978;SDS011;63430;53.186;6.598;2023-03-03T05:18:49;10.02;;;9.32;;
52978;SDS011;63430;53.186;6.598;2023-03-03T05:20:51;10.27;;;9.38;;
52978;SDS011;63430;53.186;6.598;2023-03-03T05:22:54;9.15;;;8.55;;
52978;SDS011;63430;53.186;6.598;2023-03-03T05:25:00;9.80;;;9.10;;
52978;SDS011;63430;53.186;6.598;2023-03-03T05:27:03;10.13;;;9.40;;
52978;SDS011;63430;53.186;6.598;2023-03-03T05:29:09;10.40;;;9.50;;
52978;SDS011;63430;53.186;6.598;2023-03-03T05:31:11;19.10;;;9.68;;
52978;SDS011;63430;53.186;6.598;2023-03-03T05:33:14;9.93;;;9.13;;
52978;SDS011;63430;53.186;6.598;2023-03-03T05:35:23;9.20;;;8.52;;
52978;SDS011;63430;53.186;6.598;2023-03-03T05:37:26;10.80;;;10.00;;
52978;SDS011;63430;53.186;6.598;2023-03-03T05:39:29;9.55;;;8.85;;
52978;SDS011;63430;53.186;6.598;2023-03-03T05:41:32;11.00;;;10.00;;
52978;SDS011;63430;53.186;6.598;2023-03-03T05:43:37;10.45;;;9.60;;
52978;SDS011;63430;53.186;6.598;2023-03-03T05:45:42;9.88;;;9.07;;
52978;SDS011;63430;53.186;6.598;2023-03-03T05:47:47;10.45;;;9.68;;
52978;SDS011;63430;53.186;6.598;2023-03-03T05:49:50;9.43;;;8.73;;
52978;SDS011;63430;53.186;6.598;2023-03-03T05:51:53;10.20;;;9.32;;
52978;SDS011;63430;53.186;6.598;2023-03-03T05:53:55;11.05;;;9.57;;
52978;SDS011;63430;53.186;6.598;2023-03-03T05:55:58;9.93;;;9.10;;
52978;SDS011;63430;53.186;6.598;2023-03-03T05:58:00;9.90;;;9.07;;
52978;SDS011;63430;53.186;6.598;2023-03-03T06:00:05;10.50;;;9.70;;
52978;SDS011;63430;53.186;6.598;2023-03-03T06:02:17;10.10;;;9.20;;
52978;SDS011;63430;53.186;6.598;2023-03-03T06:04:19;10.05;;;9.35;;
52978;SDS011;63430;53.186;6.598;2023-03-03T06:06:22;10.82;;;9.93;;
52978;SDS011;63430;53.186;6.598;2023-03-03T06:08:24;10.32;;;9.52;;
52978;SDS011;63430;53.186;6.598;2023-03-03T06:10:27;10.32;;;9.50;;
52978;SDS011;63430;53.186;6.598;2023-03-03T06:12:33;15.40;;;10.43;;
52978;SDS011;63430;53.186;6.598;2023-03-03T06:14:35;11.43;;;10.20;;
52978;SDS011;63430;53.186;6.598;2023-03-03T06:16:38;11.30;;;10.10;;
52978;SDS011;63430;53.186;6.598;2023-03-03T06:18:43;11.20;;;10.23;;
52978;SDS011;63430;53.186;6.598;2023-03-03T06:20:49;10.40;;;9.60;;
52978;SDS011;63430;53.186;6.598;2023-03-03T06:22:53;11.48;;;10.68;;
52978;SDS011;63430;53.186;6.598;2023-03-03T06:24:56;10.85;;;9.82;;
52978;SDS011;63430;53.186;6.598;2023-03-03T06:26:58;11.18;;;10.18;;
52978;SDS011;63430;53.186;6.598;2023-03-03T06:29:02;10.75;;;9.80;;
52978;SDS011;63430;53.186;6.598;2023-03-03T06:31:05;9.97;;;9.17;;
52978;SDS011;63430;53.186;6.598;2023-03-03T06:33:08;9.82;;;9.02;;
52978;SDS011;63430;53.186;6.598;2023-03-03T06:35:13;9.75;;;8.95;;
52978;SDS011;63430;53.186;6.598;2023-03-03T06:37:16;10.02;;;9.23;;
52978;SDS011;63430;53.186;6.598;2023-03-03T06:39:18;11.15;;;10.25;;
52978;SDS011;63430;53.186;6.598;2023-03-03T06:41:21;10.85;;;9.80;;
52978;SDS011;63430;53.186;6.598;2023-03-03T06:43:23;9.75;;;8.95;;
52978;SDS011;63430;53.186;6.598;2023-03-03T06:45:26;9.85;;;9.05;;
52978;SDS011;63430;53.186;6.598;2023-03-03T06:47:28;10.07;;;9.25;;
52978;SDS011;63430;53.186;6.598;2023-03-03T06:49:32;10.40;;;9.52;;
52978;SDS011;63430;53.186;6.598;2023-03-03T06:51:40;11.63;;;10.52;;
52978;SDS011;63430;53.186;6.598;2023-03-03T06:53:43;11.63;;;10.45;;
52978;SDS011;63430;53.186;6.598;2023-03-03T06:55:49;10.65;;;9.65;;
52978;SDS011;63430;53.186;6.598;2023-03-03T06:58:08;11.15;;;10.07;;
52978;SDS011;63430;53.186;6.598;2023-03-03T07:00:15;10.30;;;9.48;;
52978;SDS011;63430;53.186;6.598;2023-03-03T07:02:21;10.50;;;9.70;;
52978;SDS011;63430;53.186;6.598;2023-03-03T07:04:24;11.18;;;10.27;;
52978;SDS011;63430;53.186;6.598;2023-03-03T07:06:29;10.52;;;9.63;;
52978;SDS011;63430;53.186;6.598;2023-03-03T07:08:36;10.30;;;9.50;;
52978;SDS011;63430;53.186;6.598;2023-03-03T07:10:41;10.88;;;10.00;;
52978;SDS011;63430;53.186;6.598;2023-03-03T07:12:50;10.93;;;9.88;;
52978;SDS011;63430;53.186;6.598;2023-03-03T07:14:55;11.10;;;10.20;;
52978;SDS011;63430;53.186;6.598;2023-03-03T07:17:20;10.95;;;9.95;;
52978;SDS011;63430;53.186;6.598;2023-03-03T07:19:38;10.80;;;9.90;;
52978;SDS011;63430;53.186;6.598;2023-03-03T07:21:41;11.65;;;10.65;;
52978;SDS011;63430;53.186;6.598;2023-03-03T07:23:47;11.77;;;10.57;;
52978;SDS011;63430;53.186;6.598;2023-03-03T07:25:52;10.50;;;9.43;;
52978;SDS011;63430;53.186;6.598;2023-03-03T07:27:55;10.35;;;9.38;;
52978;SDS011;63430;53.186;6.598;2023-03-03T07:30:17;10.00;;;9.10;;
52978;SDS011;63430;53.186;6.598;2023-03-03T07:32:26;12.35;;;10.50;;
52978;SDS011;63430;53.186;6.598;2023-03-03T07:34:39;12.45;;;10.48;;
52978;SDS011;63430;53.186;6.598;2023-03-03T07:36:44;11.35;;;10.35;;
52978;SDS011;63430;53.186;6.598;2023-03-03T07:38:50;10.05;;;9.15;;
52978;SDS011;63430;53.186;6.598;2023-03-03T07:41:09;10.95;;;9.85;;
52978;SDS011;63430;53.186;6.598;2023-03-03T07:43:25;10.75;;;9.75;;
52978;SDS011;63430;53.186;6.598;2023-03-03T07:45:33;10.27;;;9.38;;
52978;SDS011;63430;53.186;6.598;2023-03-03T07:47:38;10.00;;;9.15;;
52978;SDS011;63430;53.186;6.598;2023-03-03T07:49:40;10.63;;;9.48;;
52978;SDS011;63430;53.186;6.598;2023-03-03T07:51:44;14.38;;;10.15;;
52978;SDS011;63430;53.186;6.598;2023-03-03T07:53:46;9.32;;;8.52;;
52978;SDS011;63430;53.186;6.598;2023-03-03T07:55:53;11.32;;;10.23;;
52978;SDS011;63430;53.186;6.598;2023-03-03T07:57:56;10.77;;;9.20;;
52978;SDS011;63430;53.186;6.598;2023-03-03T08:03:14;12.00;;;9.30;;
52978;SDS011;63430;53.186;6.598;2023-03-03T08:07:38;10.90;;;9.75;;
52978;SDS011;63430;53.186;6.598;2023-03-03T08:09:44;10.23;;;9.32;;
52978;SDS011;63430;53.186;6.598;2023-03-03T08:11:50;15.35;;;10.02;;
52978;SDS011;63430;53.186;6.598;2023-03-03T08:13:55;10.65;;;9.50;;
52978;SDS011;63430;53.186;6.598;2023-03-03T08:16:00;10.45;;;9.55;;
52978;SDS011;63430;53.186;6.598;2023-03-03T08:18:08;11.50;;;10.40;;
52978;SDS011;63430;53.186;6.598;2023-03-03T08:20:35;12.45;;;9.63;;
52978;SDS011;63430;53.186;6.598;2023-03-03T08:22:48;9.43;;;8.70;;
52978;SDS011;63430;53.186;6.598;2023-03-03T08:24:54;9.98;;;9.07;;
52978;SDS011;63430;53.186;6.598;2023-03-03T08:26:56;10.48;;;9.57;;
52978;SDS011;63430;53.186;6.598;2023-03-03T08:29:01;10.50;;;9.43;;
52978;SDS011;63430;53.186;6.598;2023-03-03T08:31:04;10.30;;;9.30;;
52978;SDS011;63430;53.186;6.598;2023-03-03T08:33:21;10.23;;;9.30;;
52978;SDS011;63430;53.186;6.598;2023-03-03T08:35:23;9.98;;;9.07;;
52978;SDS011;63430;53.186;6.598;2023-03-03T08:37:26;10.27;;;9.38;;
52978;SDS011;63430;53.186;6.598;2023-03-03T08:39:29;10.40;;;9.43;;
52978;SDS011;63430;53.186;6.598;2023-03-03T08:41:34;11.32;;;10.23;;
52978;SDS011;63430;53.186;6.598;2023-03-03T08:43:36;10.68;;;9.52;;
52978;SDS011;63430;53.186;6.598;2023-03-03T08:45:44;11.43;;;10.43;;
52978;SDS011;63430;53.186;6.598;2023-03-03T08:47:48;11.23;;;10.13;;
52978;SDS011;63430;53.186;6.598;2023-03-03T08:49:51;10.93;;;9.90;;
52978;SDS011;63430;53.186;6.598;2023-03-03T08:51:55;11.02;;;10.05;;
52978;SDS011;63430;53.186;6.598;2023-03-03T08:53:57;12.48;;;10.38;;
52978;SDS011;63430;53.186;6.598;2023-03-03T08:56:00;16.23;;;10.05;;
52978;SDS011;63430;53.186;6.598;2023-03-03T08:58:05;11.23;;;10.13;;
52978;SDS011;63430;53.186;6.598;2023-03-03T09:00:08;9.98;;;9.05;;
52978;SDS011;63430;53.186;6.598;2023-03-03T09:02:14;9.73;;;9.00;;
52978;SDS011;63430;53.186;6.598;2023-03-03T09:04:17;10.45;;;9.45;;
52978;SDS011;63430;53.186;6.598;2023-03-03T09:06:20;10.98;;;9.23;;
52978;SDS011;63430;53.186;6.598;2023-03-03T09:08:23;10.27;;;9.23;;
52978;SDS011;63430;53.186;6.598;2023-03-03T09:10:26;9.45;;;8.65;;
52978;SDS011;63430;53.186;6.598;2023-03-03T09:12:31;13.35;;;9.60;;
52978;SDS011;63430;53.186;6.598;2023-03-03T09:14:38;9.70;;;8.85;;
52978;SDS011;63430;53.186;6.598;2023-03-03T09:16:43;10.52;;;9.63;;
52978;SDS011;63430;53.186;6.598;2023-03-03T09:19:05;9.63;;;8.73;;
52978;SDS011;63430;53.186;6.598;2023-03-03T09:21:38;11.00;;;9.15;;
52978;SDS011;63430;53.186;6.598;2023-03-03T09:23:45;9.70;;;8.82;;
52978;SDS011;63430;53.186;6.598;2023-03-03T09:25:51;10.15;;;9.13;;
52978;SDS011;63430;53.186;6.598;2023-03-03T09:27:54;10.20;;;9.30;;
52978;SDS011;63430;53.186;6.598;2023-03-03T09:30:02;10.02;;;9.23;;
52978;SDS011;63430;53.186;6.598;2023-03-03T09:32:21;9.45;;;8.75;;
52978;SDS011;63430;53.186;6.598;2023-03-03T09:34:36;11.05;;;10.02;;
52978;SDS011;63430;53.186;6.598;2023-03-03T09:36:47;10.43;;;9.48;;
52978;SDS011;63430;53.186;6.598;2023-03-03T09:38:50;10.95;;;9.13;;
52978;SDS011;63430;53.186;6.598;2023-03-03T09:40:57;12.38;;;9.95;;
52978;SDS011;63430;53.186;6.598;2023-03-03T09:43:16;11.13;;;9.48;;
52978;SDS011;63430;53.186;6.598;2023-03-03T09:45:36;10.85;;;9.80;;
52978;SDS011;63430;53.186;6.598;2023-03-03T09:48:01;11.18;;;10.18;;
52978;SDS011;63430;53.186;6.598;2023-03-03T09:50:32;10.90;;;10.00;;
52978;SDS011;63430;53.186;6.598;2023-03-03T09:52:43;11.23;;;9.68;;
52978;SDS011;63430;53.186;6.598;2023-03-03T09:54:58;10.88;;;9.82;;
52978;SDS011;63430;53.186;6.598;2023-03-03T09:57:10;11.25;;;9.90;;
52978;SDS011;63430;53.186;6.598;2023-03-03T09:59:31;12.25;;;10.02;;
52978;SDS011;63430;53.186;6.598;2023-03-03T10:01:49;10.48;;;9.60;;
52978;SDS011;63430;53.186;6.598;2023-03-03T10:04:10;14.35;;;9.80;;
52978;SDS011;63430;53.186;6.598;2023-03-03T10:06:44;10.35;;;8.40;;
52978;SDS011;63430;53.186;6.598;2023-03-03T10:08:54;9.15;;;8.02;;
52978;SDS011;63430;53.186;6.598;2023-03-03T10:11:05;9.63;;;8.77;;
52978;SDS011;63430;53.186;6.598;2023-03-03T10:13:16;12.35;;;9.57;;
52978;SDS011;63430;53.186;6.598;2023-03-03T10:15:30;12.88;;;9.63;;
52978;SDS011;63430;53.186;6.598;2023-03-03T10:17:46;9.15;;;8.43;;
52978;SDS011;63430;53.186;6.598;2023-03-03T10:19:54;10.07;;;9.07;;
52978;SDS011;63430;53.186;6.598;2023-03-03T10:22:19;10.65;;;9.40;;
52978;SDS011;63430;53.186;6.598;2023-03-03T10:24:48;10.18;;;9.25;;
52978;SDS011;63430;53.186;6.598;2023-03-03T10:27:04;10.45;;;8.60;;
52978;SDS011;63430;53.186;6.598;2023-03-03T10:29:42;8.05;;;7.45;;
52978;SDS011;63430;53.186;6.598;2023-03-03T10:32:27;9.18;;;8.35;;
52978;SDS011;63430;53.186;6.598;2023-03-03T10:35:14;8.55;;;7.68;;
52978;SDS011;63430;53.186;6.598;2023-03-03T10:37:47;9.98;;;8.18;;
52978;SDS011;63430;53.186;6.598;2023-03-03T10:40:22;10.25;;;7.18;;
52978;SDS011;63430;53.186;6.598;2023-03-03T10:48:14;8.82;;;7.85;;
52978;SDS011;63430;53.186;6.598;2023-03-03T10:50:29;8.07;;;7.27;;
52978;SDS011;63430;53.186;6.598;2023-03-03T10:52:38;10.50;;;7.38;;
52978;SDS011;63430;53.186;6.598;2023-03-03T10:54:50;8.13;;;7.28;;
52978;SDS011;63430;53.186;6.598;2023-03-03T10:57:11;6.95;;;6.32;;
52978;SDS011;63430;53.186;6.598;2023-03-03T10:59:34;8.90;;;6.72;;
52978;SDS011;63430;53.186;6.598;2023-03-03T11:01:55;7.60;;;6.80;;
52978;SDS011;63430;53.186;6.598;2023-03-03T11:06:52;6.90;;;6.30;;
52978;SDS011;63430;53.186;6.598;2023-03-03T11:09:02;6.72;;;5.57;;
52978;SDS011;63430;53.186;6.598;2023-03-03T11:11:24;6.25;;;5.65;;
52978;SDS011;63430;53.186;6.598;2023-03-03T11:13:35;6.05;;;5.50;;
52978;SDS011;63430;53.186;6.598;2023-03-03T11:15:50;4.15;;;3.80;;
52978;SDS011;63430;53.186;6.598;2023-03-03T11:18:14;5.20;;;4.38;;
52978;SDS011;63430;53.186;6.598;2023-03-03T11:20:29;5.38;;;4.88;;
52978;SDS011;63430;53.186;6.598;2023-03-03T11:22:43;4.45;;;4.03;;
52978;SDS011;63430;53.186;6.598;2023-03-03T11:24:57;5.95;;;4.28;;
52978;SDS011;63430;53.186;6.598;2023-03-03T11:27:11;4.07;;;3.80;;
52978;SDS011;63430;53.186;6.598;2023-03-03T11:29:28;4.13;;;3.83;;
52978;SDS011;63430;53.186;6.598;2023-03-03T11:31:40;3.88;;;3.50;;
52978;SDS011;63430;53.186;6.598;2023-03-03T11:36:03;4.35;;;3.95;;
52978;SDS011;63430;53.186;6.598;2023-03-03T11:38:22;4.72;;;4.32;;
52978;SDS011;63430;53.186;6.598;2023-03-03T11:40:38;6.20;;;5.60;;
52978;SDS011;63430;53.186;6.598;2023-03-03T11:42:51;4.00;;;3.70;;
52978;SDS011;63430;53.186;6.598;2023-03-03T11:45:02;4.40;;;4.00;;
52978;SDS011;63430;53.186;6.598;2023-03-03T11:47:16;6.57;;;4.10;;
52978;SDS011;63430;53.186;6.598;2023-03-03T11:49:24;4.07;;;3.78;;
52978;SDS011;63430;53.186;6.598;2023-03-03T11:51:37;3.85;;;3.55;;
52978;SDS011;63430;53.186;6.598;2023-03-03T11:53:53;4.00;;;3.20;;
52978;SDS011;63430;53.186;6.598;2023-03-03T11:56:01;4.10;;;3.80;;
52978;SDS011;63430;53.186;6.598;2023-03-03T11:58:11;3.42;;;3.08;;
52978;SDS011;63430;53.186;6.598;2023-03-03T12:00:23;4.28;;;3.85;;
52978;SDS011;63430;53.186;6.598;2023-03-03T12:05:26;3.88;;;3.38;;
52978;SDS011;63430;53.186;6.598;2023-03-03T12:07:38;6.18;;;3.83;;
52978;SDS011;63430;53.186;6.598;2023-03-03T12:09:51;9.68;;;4.18;;
52978;SDS011;63430;53.186;6.598;2023-03-03T12:12:04;7.88;;;3.85;;
52978;SDS011;63430;53.186;6.598;2023-03-03T12:14:09;5.10;;;3.60;;
52978;SDS011;63430;53.186;6.598;2023-03-03T12:16:25;4.28;;;3.95;;
52978;SDS011;63430;53.186;6.598;2023-03-03T12:18:50;4.35;;;4.05;;
52978;SDS011;63430;53.186;6.598;2023-03-03T12:21:02;8.18;;;4.18;;
52978;SDS011;63430;53.186;6.598;2023-03-03T12:23:18;3.88;;;3.58;;
52978;SDS011;63430;53.186;6.598;2023-03-03T12:25:56;6.07;;;4.68;;
52978;SDS011;63430;53.186;6.598;2023-03-03T12:28:18;9.63;;;3.38;;
52978;SDS011;63430;53.186;6.598;2023-03-03T12:30:31;7.60;;;3.78;;
52978;SDS011;63430;53.186;6.598;2023-03-03T12:33:01;13.55;;;4.35;;
52978;SDS011;63430;53.186;6.598;2023-03-03T12:35:14;4.25;;;3.88;;
52978;SDS011;63430;53.186;6.598;2023-03-03T12:37:25;4.40;;;4.10;;
52978;SDS011;63430;53.186;6.598;2023-03-03T12:39:44;4.45;;;3.80;;
52978;SDS011;63430;53.186;6.598;2023-03-03T12:41:59;5.05;;;3.83;;
52978;SDS011;63430;53.186;6.598;2023-03-03T12:44:12;5.53;;;3.78;;
52978;SDS011;63430;53.186;6.598;2023-03-03T12:46:20;4.20;;;3.90;;
52978;SDS011;63430;53.186;6.598;2023-03-03T12:48:33;9.93;;;4.10;;
52978;SDS011;63430;53.186;6.598;2023-03-03T12:50:54;4.20;;;3.55;;
52978;SDS011;63430;53.186;6.598;2023-03-03T12:53:06;6.20;;;3.90;;
52978;SDS011;63430;53.186;6.598;2023-03-03T12:55:20;4.03;;;3.67;;
52978;SDS011;63430;53.186;6.598;2023-03-03T12:57:38;7.22;;;4.32;;
52978;SDS011;63430;53.186;6.598;2023-03-03T12:59:50;7.90;;;4.03;;
52978;SDS011;63430;53.186;6.598;2023-03-03T13:02:16;6.18;;;3.75;;
52978;SDS011;63430;53.186;6.598;2023-03-03T13:04:34;9.35;;;4.00;;